»·PEaware :: SWA504 KGEG-KPDX

SWA504 :: KGEG-KPDX

FLIGHT INFORMATION

Flight Status: Arrived
Operator:
Southwest Airlines
More flights by this operator :: More flights under this callsign
Pilot: Steve F. (26981)
Aircraft: BOEING 737-900
(B739)
More flights by this aircraft type
Origin: KGEG Spokane Intl
United States
Destination: KPDX Portland Intl
United States
More flights between these airports :: More routes between these airports
Route: GEG6 ZEGRO JORAD HHOOD4
File this flight plan on PilotEdge
Remarks:
Altitude:
(Current/Filed)
28,000ft
Speed:
(Current/Filed)
453kts
Departed: 09-Oct-23 05:26 PM
Arrived: 09-Oct-23 06:13 PM
Distance/Time
Traveled:
241nm/0:47
Distance/Time
To Go:
Arrived

Flight Plot

Page will automatically refresh every two minutes.

Flight plan parsing failed; only flown route is shown


Map Options




Map Legend


Flown Route
Filed Route
Departure Airport
Arrival Airport
Navaid (VOR, NDB)
Fix

Horizontal Profiles

Position Reports

Time Latitude Longitude Heading Altitude Ground
Speed
09-Oct-23 17:05 47.624250 -117.536665 87 2358ft 0kts
09-Oct-23 17:06 47.624250 -117.536665 87 2358ft 0kts
09-Oct-23 17:07 47.624250 -117.536665 87 2358ft 0kts
09-Oct-23 17:08 47.624250 -117.536665 87 2358ft 0kts
09-Oct-23 17:09 47.624250 -117.536665 87 2358ft 0kts
09-Oct-23 17:10 47.624250 -117.536665 87 2358ft 0kts
09-Oct-23 17:11 47.624250 -117.536665 87 2358ft 0kts
09-Oct-23 17:12 47.624250 -117.536665 87 2358ft 0kts
09-Oct-23 17:13 47.624250 -117.536665 87 2358ft 0kts
09-Oct-23 17:14 47.624250 -117.536665 87 2358ft 0kts
09-Oct-23 17:15 47.624250 -117.536665 87 2358ft 0kts
09-Oct-23 17:16 47.624250 -117.536665 87 2358ft 0kts
09-Oct-23 17:17 47.624250 -117.536665 87 2358ft 0kts
09-Oct-23 17:18 47.624247 -117.536744 87 2358ft 1kts
09-Oct-23 17:19 47.624231 -117.537208 87 2358ft 0kts
09-Oct-23 17:20 47.624231 -117.537208 87 2358ft 0kts
09-Oct-23 17:21 47.623972 -117.536902 145 2358ft 5kts
09-Oct-23 17:22 47.623502 -117.533959 44 2358ft 15kts
09-Oct-23 17:23 47.628220 -117.526829 46 2358ft 23kts
09-Oct-23 17:24 47.632324 -117.519978 126 2358ft 13kts
09-Oct-23 17:25 47.628164 -117.522918 226 2358ft 88kts
09-Oct-23 17:26 47.593773 -117.573328 223 4377ft 216kts
09-Oct-23 17:27 47.545393 -117.644500 224 7239ft 266kts
09-Oct-23 17:28 47.493461 -117.722000 224 11054ft 266kts
09-Oct-23 17:29 47.448126 -117.826048 246 12397ft 350kts
09-Oct-23 17:30 47.395009 -117.946088 226 14851ft 357kts
09-Oct-23 17:31 47.332011 -118.059297 226 15120ft 360kts
09-Oct-23 17:32 47.268258 -118.173512 225 18065ft 365kts
09-Oct-23 17:33 47.201771 -118.292180 226 20120ft 387kts
09-Oct-23 17:34 47.132200 -118.417971 226 21885ft 405kts
09-Oct-23 17:35 47.059102 -118.548370 227 23399ft 421kts
09-Oct-23 17:36 46.983432 -118.682406 227 24816ft 432kts
09-Oct-23 17:37 46.906123 -118.818604 227 26139ft 439kts
09-Oct-23 17:38 46.827329 -118.956727 226 27583ft 439kts
09-Oct-23 17:39 46.749004 -119.093334 226 27709ft 438kts
09-Oct-23 17:40 46.670696 -119.229197 226 27712ft 437kts
09-Oct-23 17:41 46.592467 -119.364323 226 27714ft 437kts
09-Oct-23 17:42 46.513839 -119.499421 226 27718ft 436kts
09-Oct-23 17:43 46.435578 -119.633260 225 27722ft 435kts
09-Oct-23 17:44 46.357048 -119.766921 225 27726ft 434kts
09-Oct-23 17:45 46.278850 -119.899351 225 27729ft 434kts
09-Oct-23 17:46 46.200206 -120.031914 225 27730ft 433kts
09-Oct-23 17:47 46.121821 -120.163389 225 27735ft 433kts
09-Oct-23 17:48 46.043072 -120.294894 225 27739ft 434kts
09-Oct-23 17:49 45.964409 -120.426612 225 27285ft 432kts
09-Oct-23 17:50 45.886342 -120.555375 225 25536ft 423kts
09-Oct-23 17:51 45.816246 -120.688478 239 23526ft 420kts
09-Oct-23 17:52 45.773062 -120.841260 245 21128ft 406kts
09-Oct-23 17:53 45.732374 -120.988725 245 18722ft 387kts
09-Oct-23 17:54 45.693779 -121.128534 246 16319ft 369kts
09-Oct-23 17:55 45.657696 -121.258312 246 14841ft 333kts
09-Oct-23 17:56 45.624590 -121.376103 246 13617ft 310kts
09-Oct-23 17:57 45.593727 -121.486969 247 12197ft 292kts
09-Oct-23 17:58 45.564429 -121.591291 247 10878ft 278kts
09-Oct-23 17:59 45.536071 -121.691777 247 9592ft 274kts
09-Oct-23 18:00 45.532355 -121.797290 270 8528ft 256kts
09-Oct-23 18:01 45.535895 -121.892288 269 7825ft 236kts
09-Oct-23 18:02 45.539439 -121.983790 272 7138ft 232kts
09-Oct-23 18:03 45.528885 -122.070075 235 6504ft 223kts
09-Oct-23 18:04 45.492145 -122.142119 234 5971ft 222kts
09-Oct-23 18:05 45.475051 -122.219873 275 5123ft 213kts
09-Oct-23 18:06 45.482848 -122.302681 279 3831ft 206kts
09-Oct-23 18:07 45.506042 -122.368590 299 3119ft 177kts
09-Oct-23 18:08 45.530077 -122.429785 298 2184ft 175kts
09-Oct-23 18:09 45.552326 -122.486727 297 1308ft 148kts
09-Oct-23 18:10 45.572228 -122.537779 296 505ft 149kts
09-Oct-23 18:11 45.590511 -122.584579 298 38ft 73kts
09-Oct-23 18:12 45.592078 -122.591659 280 38ft 1kts
09-Oct-23 18:13 45.592089 -122.591748 279 38ft 3kts
09-Oct-23 18:14 45.590408 -122.590785 206 38ft 4kts

Navigation Log

Ident Type
Flight plan parsing failed, navigation log unavailable